createdAt,value
2023-03-02T00:00:51.553Z,2.55
2023-03-02T00:02:02.370Z,2.60
2023-03-02T00:03:05.501Z,2.67
2023-03-02T00:04:14.008Z,2.59
2023-03-02T00:05:16.513Z,2.49
2023-03-02T00:06:19.515Z,2.58
2023-03-02T00:07:32.473Z,2.59
2023-03-02T00:08:36.682Z,2.56
2023-03-02T00:09:39.561Z,2.57
2023-03-02T00:10:42.445Z,2.49
2023-03-02T00:11:45.841Z,2.44
2023-03-02T00:12:48.323Z,2.48
2023-03-02T00:13:50.842Z,2.46
2023-03-02T00:14:53.367Z,2.48
2023-03-02T00:15:55.984Z,2.54
2023-03-02T00:16:58.772Z,2.56
2023-03-02T00:18:01.286Z,2.52
2023-03-02T00:19:03.696Z,2.54
2023-03-02T00:20:12.700Z,2.54
2023-03-02T00:21:15.229Z,2.61
2023-03-02T00:22:19.182Z,2.60
2023-03-02T00:23:21.691Z,2.59
2023-03-02T00:24:24.212Z,2.52
2023-03-02T00:25:26.851Z,2.58
2023-03-02T00:26:29.403Z,2.54
2023-03-02T00:27:31.892Z,2.49
2023-03-02T00:28:35.732Z,2.48
2023-03-02T00:29:38.278Z,2.44
2023-03-02T00:30:40.770Z,2.52
2023-03-02T00:31:43.323Z,2.46
2023-03-02T00:32:45.936Z,2.54
2023-03-02T00:33:48.452Z,2.51
2023-03-02T00:34:51.103Z,2.54
2023-03-02T00:35:53.728Z,2.48
2023-03-02T00:36:56.255Z,2.42
2023-03-02T00:37:58.799Z,2.47
2023-03-02T00:39:01.297Z,2.42
2023-03-02T00:40:07.060Z,2.41
2023-03-02T00:41:12.100Z,2.37
2023-03-02T00:42:14.499Z,2.35
2023-03-02T00:43:17.146Z,2.42
2023-03-02T00:44:19.541Z,2.48
2023-03-02T00:45:22.180Z,2.41
2023-03-02T00:46:25.221Z,2.47
2023-03-02T00:47:30.940Z,2.58
2023-03-02T00:48:33.464Z,2.49
2023-03-02T00:49:36.703Z,2.50
2023-03-02T00:50:41.348Z,2.47
2023-03-02T00:51:43.909Z,2.48
2023-03-02T00:52:46.545Z,2.44
2023-03-02T00:53:49.073Z,2.33
2023-03-02T00:54:51.707Z,2.28
2023-03-02T00:55:55.185Z,2.33
2023-03-02T00:56:58.668Z,2.29
2023-03-02T00:58:01.186Z,2.36
2023-03-02T00:59:28.248Z,2.40
2023-03-02T01:00:46.433Z,2.44
2023-03-02T01:01:57.976Z,2.47
2023-03-02T01:03:02.349Z,2.45
2023-03-02T01:04:05.159Z,2.43
2023-03-02T01:05:08.159Z,2.35
2023-03-02T01:06:17.035Z,2.47
2023-03-02T01:07:26.284Z,2.31
2023-03-02T01:08:28.798Z,2.33
2023-03-02T01:09:32.878Z,2.26
2023-03-02T01:10:35.435Z,2.18
2023-03-02T01:11:37.812Z,2.08
2023-03-02T01:12:40.328Z,2.00
2023-03-02T01:13:43.444Z,2.03
2023-03-02T01:14:48.145Z,2.20
2023-03-02T01:16:00.293Z,2.22
2023-03-02T01:17:04.223Z,2.12
2023-03-02T01:18:06.852Z,2.13
2023-03-02T01:19:09.367Z,2.19
2023-03-02T01:20:12.970Z,2.15
2023-03-02T01:21:16.583Z,2.27
2023-03-02T01:22:20.300Z,2.30
2023-03-02T01:23:22.812Z,2.24
2023-03-02T01:24:25.349Z,2.23
2023-03-02T01:25:28.574Z,2.26
2023-03-02T01:26:31.365Z,2.25
2023-03-02T01:27:33.976Z,2.24
2023-03-02T01:28:36.862Z,2.26
2023-03-02T01:29:39.265Z,2.20
2023-03-02T01:30:41.779Z,2.21
2023-03-02T01:31:45.447Z,2.19
2023-03-02T01:32:47.899Z,2.22
2023-03-02T01:33:50.420Z,2.24
2023-03-02T01:34:52.942Z,2.21
2023-03-02T01:35:55.374Z,2.18
2023-03-02T01:36:57.990Z,2.28
2023-03-02T01:38:00.502Z,2.25
2023-03-02T01:39:03.502Z,2.27
2023-03-02T01:40:06.760Z,2.24
2023-03-02T01:41:10.344Z,2.17
2023-03-02T01:42:12.887Z,2.23
2023-03-02T01:43:16.851Z,2.29
2023-03-02T01:44:51.513Z,2.40
2023-03-02T01:45:57.379Z,2.32
2023-03-02T01:47:18.755Z,2.26
2023-03-02T01:48:39.281Z,2.26
2023-03-02T01:49:47.555Z,2.24
2023-03-02T01:50:50.554Z,2.20
2023-03-02T01:51:53.436Z,2.24
2023-03-02T01:52:56.791Z,2.18
2023-03-02T01:54:04.235Z,2.26
2023-03-02T01:55:10.479Z,2.24
2023-03-02T01:56:18.876Z,2.25
2023-03-02T01:57:25.361Z,2.28
2023-03-02T01:58:31.362Z,2.22
2023-03-02T01:59:36.275Z,2.19
2023-03-02T02:00:40.290Z,2.15
2023-03-02T02:01:47.444Z,2.18
2023-03-02T02:02:51.648Z,2.10
2023-03-02T02:03:57.800Z,2.07
2023-03-02T02:05:00.639Z,2.07
2023-03-02T02:06:24.168Z,2.20
2023-03-02T02:07:28.014Z,2.06
2023-03-02T02:08:31.249Z,2.10
2023-03-02T02:09:56.800Z,2.10
2023-03-02T02:10:59.573Z,2.15
2023-03-02T02:12:02.933Z,2.11
2023-03-02T02:13:09.765Z,2.19
2023-03-02T02:14:13.387Z,2.16
2023-03-02T02:15:16.396Z,2.19
2023-03-02T02:16:18.926Z,2.19
2023-03-02T02:17:22.134Z,2.15
2023-03-02T02:18:26.331Z,2.25
2023-03-02T02:20:07.440Z,2.36
2023-03-02T02:21:10.128Z,2.32
2023-03-02T02:22:22.614Z,2.33
2023-03-02T02:23:28.269Z,2.30
2023-03-02T02:24:46.610Z,2.36
2023-03-02T02:26:01.985Z,2.44
2023-03-02T02:27:04.627Z,2.31
2023-03-02T02:28:13.133Z,2.35
2023-03-02T02:29:22.907Z,2.41
2023-03-02T02:30:27.177Z,2.35
2023-03-02T02:31:38.402Z,2.47
2023-03-02T02:32:43.552Z,2.43
2023-03-02T02:33:52.043Z,2.41
2023-03-02T02:35:13.378Z,2.57
2023-03-02T02:36:21.660Z,2.55
2023-03-02T02:37:30.786Z,2.53
2023-03-02T02:38:36.553Z,2.49
2023-03-02T02:39:44.826Z,2.54
2023-03-02T02:41:01.624Z,2.52
2023-03-02T02:42:13.985Z,2.45
2023-03-02T02:43:19.638Z,2.44
2023-03-02T02:44:22.391Z,2.47
2023-03-02T02:45:26.617Z,2.52
2023-03-02T02:46:29.714Z,2.55
2023-03-02T02:47:32.833Z,2.43
2023-03-02T02:48:35.602Z,2.45
2023-03-02T02:49:40.637Z,2.51
2023-03-02T02:50:44.490Z,2.40
2023-03-02T02:51:47.949Z,2.39
2023-03-02T02:52:57.557Z,2.48
2023-03-02T02:54:02.833Z,2.33
2023-03-02T02:55:20.232Z,2.40
2023-03-02T02:56:31.149Z,2.30
2023-03-02T02:57:33.803Z,2.24
2023-03-02T02:58:42.797Z,2.15
2023-03-02T02:59:49.043Z,2.22
2023-03-02T03:00:51.957Z,2.28
2023-03-02T03:01:55.758Z,2.19
2023-03-02T03:03:07.762Z,2.15
2023-03-02T03:04:14.779Z,2.08
2023-03-02T03:05:17.720Z,2.13
2023-03-02T03:06:30.509Z,2.11
2023-03-02T03:07:33.458Z,2.04
2023-03-02T03:08:44.021Z,2.06
2023-03-02T03:10:08.248Z,2.19
2023-03-02T03:11:13.287Z,2.15
2023-03-02T03:12:22.284Z,2.16
2023-03-02T03:13:24.807Z,2.05
2023-03-02T03:14:32.882Z,2.03
2023-03-02T03:15:35.368Z,1.95
2023-03-02T03:16:39.945Z,2.04
2023-03-02T03:17:49.767Z,2.11
2023-03-02T03:18:53.248Z,2.04
2023-03-02T03:20:03.449Z,2.04
2023-03-02T03:21:06.208Z,1.87
2023-03-02T03:22:12.093Z,1.95
2023-03-02T03:23:14.870Z,1.94
2023-03-02T03:24:18.448Z,2.05
2023-03-02T03:25:25.170Z,2.03
2023-03-02T03:26:28.171Z,2.00
2023-03-02T03:27:30.940Z,2.01
2023-03-02T03:28:34.182Z,1.97
2023-03-02T03:29:39.100Z,2.06
2023-03-02T03:30:44.397Z,1.96
2023-03-02T03:31:46.893Z,1.90
2023-03-02T03:32:49.652Z,1.88
2023-03-02T03:33:53.131Z,1.73
2023-03-02T03:34:56.617Z,1.71
2023-03-02T03:36:05.975Z,1.67
2023-03-02T03:37:13.663Z,1.64
2023-03-02T03:38:17.251Z,1.61
2023-03-02T03:39:22.055Z,1.62
2023-03-02T03:40:25.421Z,1.63
2023-03-02T03:41:28.176Z,1.67
2023-03-02T03:42:30.710Z,1.64
2023-03-02T03:43:34.060Z,1.62
2023-03-02T03:44:36.821Z,1.61
2023-03-02T03:45:39.818Z,1.66
2023-03-02T03:46:43.182Z,1.60
2023-03-02T03:47:46.181Z,1.63
2023-03-02T03:48:49.062Z,1.61
2023-03-02T03:49:51.584Z,1.60
2023-03-02T03:50:54.219Z,1.62
2023-03-02T03:51:56.859Z,1.55
2023-03-02T03:52:59.380Z,1.62
2023-03-02T03:54:05.981Z,1.54
2023-03-02T03:55:12.590Z,1.51
2023-03-02T03:56:16.567Z,1.46
2023-03-02T03:57:19.066Z,1.51
2023-03-02T03:58:21.872Z,1.52
2023-03-02T03:59:25.783Z,1.48
2023-03-02T04:00:34.544Z,1.53
2023-03-02T04:01:49.010Z,1.56
2023-03-02T04:02:52.611Z,1.48
2023-03-02T04:03:55.574Z,1.54
2023-03-02T04:05:06.377Z,1.54
2023-03-02T04:06:19.068Z,1.64
2023-03-02T04:07:22.308Z,1.58
2023-03-02T04:08:24.713Z,1.47
2023-03-02T04:09:27.607Z,1.47
2023-03-02T04:10:30.356Z,1.48
2023-03-02T04:11:38.642Z,1.55
2023-03-02T04:12:42.476Z,1.55
2023-03-02T04:13:45.956Z,1.49
2023-03-02T04:14:48.594Z,1.52
2023-03-02T04:15:51.282Z,1.55
2023-03-02T04:16:53.778Z,1.52
2023-03-02T04:17:57.841Z,1.50
2023-03-02T04:19:01.316Z,1.55
2023-03-02T04:20:07.797Z,1.50
2023-03-02T04:21:10.920Z,1.45
2023-03-02T04:22:15.243Z,1.48
2023-03-02T04:23:18.128Z,1.47
2023-03-02T04:24:23.302Z,1.38
2023-03-02T04:25:29.520Z,1.34
2023-03-02T04:26:39.481Z,1.25
2023-03-02T04:27:42.600Z,1.25
2023-03-02T04:28:45.272Z,1.25
2023-03-02T04:29:48.486Z,1.15
2023-03-02T04:30:51.670Z,1.14
2023-03-02T04:31:54.288Z,1.01
2023-03-02T04:32:57.779Z,0.74
2023-03-02T04:34:06.388Z,0.64
2023-03-02T04:35:14.173Z,0.56
2023-03-02T04:36:16.818Z,0.48
2023-03-02T04:37:21.138Z,0.33
2023-03-02T04:38:23.788Z,0.28
2023-03-02T04:39:27.262Z,0.33
2023-03-02T04:40:30.144Z,0.37
2023-03-02T04:41:33.022Z,0.35
2023-03-02T04:42:36.266Z,0.39
2023-03-02T04:43:38.904Z,0.20
2023-03-02T04:44:41.309Z,0.21
2023-03-02T04:45:43.839Z,0.23
2023-03-02T04:46:47.881Z,0.18
2023-03-02T04:47:50.310Z,0.11
2023-03-02T04:48:53.796Z,0.01
2023-03-02T04:49:57.532Z,-0.06
2023-03-02T04:51:00.035Z,-0.13
2023-03-02T04:52:03.273Z,-0.16
2023-03-02T04:53:05.791Z,-0.08
2023-03-02T04:54:16.713Z,-0.10
2023-03-02T04:55:22.375Z,0.06
2023-03-02T04:56:25.356Z,0.09
2023-03-02T04:57:27.878Z,0.15
2023-03-02T04:58:30.397Z,0.11
2023-03-02T04:59:32.924Z,0.16
2023-03-02T05:00:35.570Z,0.24
2023-03-02T05:01:38.080Z,0.24
2023-03-02T05:02:41.134Z,0.27
2023-03-02T05:03:43.730Z,0.25
2023-03-02T05:04:46.278Z,0.28
2023-03-02T05:05:48.887Z,0.42
2023-03-02T05:06:51.290Z,0.41
2023-03-02T05:07:54.041Z,0.40
2023-03-02T05:08:59.919Z,0.36
2023-03-02T05:10:02.441Z,0.25
2023-03-02T05:11:06.540Z,0.11
2023-03-02T05:12:09.088Z,0.22
2023-03-02T05:13:11.580Z,0.12
2023-03-02T05:14:14.204Z,0.10
2023-03-02T05:15:16.971Z,0.12
2023-03-02T05:16:20.502Z,0.06
2023-03-02T05:17:22.966Z,0.11
2023-03-02T05:18:25.971Z,0.21
2023-03-02T05:19:28.495Z,0.11
2023-03-02T05:20:31.728Z,0.11
2023-03-02T05:21:34.611Z,0.15
2023-03-02T05:22:38.335Z,-0.05
2023-03-02T05:23:42.062Z,-0.03
2023-03-02T05:24:44.453Z,-0.06
2023-03-02T05:25:47.092Z,-0.01
2023-03-02T05:26:49.743Z,-0.01
2023-03-02T05:27:53.100Z,0.06
2023-03-02T05:28:55.737Z,0.06
2023-03-02T05:29:58.260Z,0.10
2023-03-02T05:31:01.219Z,0.08
2023-03-02T05:32:03.831Z,0.20
2023-03-02T05:33:06.306Z,0.11
2023-03-02T05:34:11.822Z,0.15
2023-03-02T05:35:14.960Z,0.11
2023-03-02T05:36:19.854Z,0.11
2023-03-02T05:37:23.238Z,0.12
2023-03-02T05:38:27.427Z,0.17
2023-03-02T05:39:29.944Z,0.11
2023-03-02T05:40:32.704Z,0.20
2023-03-02T05:41:36.664Z,0.19
2023-03-02T05:42:39.425Z,0.14
2023-03-02T05:43:41.825Z,0.07
2023-03-02T05:44:44.229Z,0.11
2023-03-02T05:45:46.887Z,0.11
2023-03-02T05:46:49.750Z,-0.02
2023-03-02T05:47:52.746Z,-0.19
2023-03-02T05:48:55.272Z,-0.09
2023-03-02T05:49:57.910Z,-0.19
2023-03-02T05:51:00.552Z,-0.20
2023-03-02T05:52:03.072Z,-0.07
2023-03-02T05:53:05.728Z,-0.08
2023-03-02T05:54:08.235Z,-0.33
2023-03-02T05:55:11.238Z,-0.20
2023-03-02T05:56:13.751Z,-0.16
2023-03-02T05:57:16.272Z,-0.13
2023-03-02T05:58:19.993Z,-0.08
2023-03-02T05:59:22.521Z,-0.12
2023-03-02T06:00:24.936Z,-0.10
2023-03-02T06:01:27.437Z,-0.07
2023-03-02T06:02:30.074Z,-0.15
2023-03-02T06:03:32.597Z,-0.12
2023-03-02T06:04:35.116Z,-0.36
2023-03-02T06:05:38.130Z,-0.33
2023-03-02T06:06:40.899Z,-0.31
2023-03-02T06:07:43.646Z,-0.32
2023-03-02T06:08:46.397Z,-0.44
2023-03-02T06:09:49.643Z,-0.61
2023-03-02T06:10:56.482Z,-0.51
2023-03-02T06:11:58.882Z,-0.56
2023-03-02T06:13:01.281Z,-0.60
2023-03-02T06:14:03.683Z,-0.65
2023-03-02T06:15:07.403Z,-0.68
2023-03-02T06:16:09.999Z,-0.84
2023-03-02T06:17:13.048Z,-0.78
2023-03-02T06:18:15.687Z,-0.73
2023-03-02T06:19:18.206Z,-0.59
2023-03-02T06:20:20.726Z,-0.52
2023-03-02T06:21:23.280Z,-0.43
2023-03-02T06:22:25.967Z,-0.33
2023-03-02T06:23:28.652Z,-0.39
2023-03-02T06:24:31.168Z,-0.24
2023-03-02T06:25:33.699Z,-0.21
2023-03-02T06:26:36.329Z,-0.25
2023-03-02T06:27:40.049Z,-0.21
2023-03-02T06:28:52.252Z,-0.20
2023-03-02T06:29:56.152Z,-0.21
2023-03-02T06:31:00.502Z,-0.29
2023-03-02T06:32:03.078Z,-0.28
2023-03-02T06:33:05.877Z,-0.23
2023-03-02T06:34:08.636Z,-0.25
2023-03-02T06:35:12.646Z,-0.23
2023-03-02T06:36:17.157Z,-0.24
2023-03-02T06:37:19.791Z,-0.25
2023-03-02T06:38:22.545Z,-0.26
2023-03-02T06:39:25.059Z,-0.20
2023-03-02T06:40:27.468Z,-0.07
2023-03-02T06:41:30.144Z,-0.07
2023-03-02T06:42:32.623Z,-0.03
2023-03-02T06:43:35.145Z,0.02
2023-03-02T06:44:37.663Z,-0.08
2023-03-02T06:45:40.569Z,-0.09
2023-03-02T06:46:43.666Z,-0.14
2023-03-02T06:47:46.185Z,-0.16
2023-03-02T06:48:48.708Z,-0.09
2023-03-02T06:49:51.348Z,-0.01
2023-03-02T06:50:53.994Z,-0.05
2023-03-02T06:51:56.508Z,0.04
2023-03-02T06:52:59.297Z,0.01
2023-03-02T06:54:01.788Z,0.05
2023-03-02T06:55:04.923Z,0.05
2023-03-02T06:56:07.912Z,0.07
2023-03-02T06:57:10.566Z,0.10
2023-03-02T06:58:13.336Z,0.12
2023-03-02T06:59:15.773Z,0.11
2023-03-02T07:00:25.954Z,0.10
2023-03-02T07:01:33.254Z,0.11
2023-03-02T07:02:36.849Z,0.10
2023-03-02T07:03:39.283Z,0.12
2023-03-02T07:04:41.876Z,0.16
2023-03-02T07:05:46.176Z,0.21
2023-03-02T07:06:48.837Z,0.26
2023-03-02T07:07:51.745Z,0.13
2023-03-02T07:08:54.364Z,0.22
2023-03-02T07:09:56.881Z,0.21
2023-03-02T07:10:59.520Z,0.22
2023-03-02T07:12:02.045Z,0.14
2023-03-02T07:13:04.560Z,0.14
2023-03-02T07:14:07.342Z,0.18
2023-03-02T07:15:12.424Z,0.03
2023-03-02T07:16:16.227Z,-0.04
2023-03-02T07:17:18.848Z,-0.16
2023-03-02T07:18:21.362Z,-0.17
2023-03-02T07:19:24.008Z,-0.14
2023-03-02T07:20:26.526Z,-0.19
2023-03-02T07:21:29.045Z,-0.24
2023-03-02T07:22:31.571Z,-0.26
2023-03-02T07:23:35.539Z,-0.37
2023-03-02T07:24:38.047Z,-0.32
2023-03-02T07:25:40.724Z,-0.34
2023-03-02T07:26:43.339Z,-0.47
2023-03-02T07:27:46.226Z,-0.37
2023-03-02T07:28:48.968Z,-0.37
2023-03-02T07:29:51.488Z,-0.36
2023-03-02T07:30:56.048Z,-0.42
2023-03-02T07:32:01.954Z,-0.37
2023-03-02T07:33:04.473Z,-0.44
2023-03-02T07:34:07.091Z,-0.47
2023-03-02T07:35:10.104Z,-0.40
2023-03-02T07:36:12.620Z,-0.30
2023-03-02T07:37:15.022Z,-0.24
2023-03-02T07:38:17.548Z,-0.28
2023-03-02T07:39:20.662Z,-0.10
2023-03-02T07:40:23.066Z,-0.12
2023-03-02T07:41:25.579Z,0.05
2023-03-02T07:42:28.342Z,0.06
2023-03-02T07:43:35.660Z,0.10
2023-03-02T07:44:38.320Z,0.14
2023-03-02T07:45:40.823Z,0.16
2023-03-02T07:46:43.366Z,0.18
2023-03-02T07:47:45.982Z,0.22
2023-03-02T07:48:48.626Z,0.27
2023-03-02T07:49:51.272Z,0.23
2023-03-02T07:51:01.115Z,0.38
2023-03-02T07:52:04.245Z,0.43
2023-03-02T07:53:06.746Z,0.43
2023-03-02T07:54:09.271Z,0.49
2023-03-02T07:55:11.907Z,0.49
2023-03-02T07:56:14.306Z,0.51
2023-03-02T07:57:18.300Z,0.57
2023-03-02T07:58:21.509Z,0.63
2023-03-02T07:59:24.653Z,0.53
2023-03-02T08:00:27.179Z,0.53
2023-03-02T08:01:29.883Z,0.62
2023-03-02T08:02:33.734Z,0.58
2023-03-02T08:03:37.136Z,0.56
2023-03-02T08:04:39.784Z,0.51
2023-03-02T08:05:42.278Z,0.51
2023-03-02T08:06:44.798Z,0.58
2023-03-02T08:07:47.452Z,0.53
2023-03-02T08:08:50.077Z,0.32
2023-03-02T08:09:52.723Z,0.23
2023-03-02T08:10:55.243Z,0.28
2023-03-02T08:11:57.890Z,0.24
2023-03-02T08:13:00.399Z,0.05
2023-03-02T08:14:03.402Z,-0.06
2023-03-02T08:15:06.412Z,-0.25
2023-03-02T08:16:10.529Z,-0.29
2023-03-02T08:17:12.906Z,-0.12
2023-03-02T08:18:15.411Z,0.11
2023-03-02T08:19:18.886Z,0.26
2023-03-02T08:20:21.527Z,0.22
2023-03-02T08:21:26.330Z,0.31
2023-03-02T08:22:28.852Z,0.31
2023-03-02T08:23:31.402Z,0.41
2023-03-02T08:24:33.907Z,0.65
2023-03-02T08:25:38.696Z,0.72
2023-03-02T08:26:41.214Z,0.78
2023-03-02T08:27:46.739Z,0.86
2023-03-02T08:28:49.378Z,0.82
2023-03-02T08:29:51.908Z,1.00
2023-03-02T08:30:59.101Z,1.10
2023-03-02T08:32:01.769Z,1.11
2023-03-02T08:33:07.117Z,1.04
2023-03-02T08:34:10.020Z,1.18
2023-03-02T08:35:13.055Z,1.31
2023-03-02T08:36:18.678Z,1.46
2023-03-02T08:37:21.202Z,1.47
2023-03-02T08:38:24.578Z,1.42
2023-03-02T08:39:30.413Z,1.46
2023-03-02T08:40:32.952Z,1.55
2023-03-02T08:41:36.113Z,1.51
2023-03-02T08:42:38.709Z,1.51
2023-03-02T08:43:41.707Z,1.59
2023-03-02T08:44:44.716Z,1.51
2023-03-02T08:45:54.933Z,1.73
2023-03-02T08:46:57.446Z,1.65
2023-03-02T08:47:59.955Z,1.67
2023-03-02T08:49:02.466Z,1.56
2023-03-02T08:50:05.958Z,1.44
2023-03-02T08:51:14.959Z,1.46
2023-03-02T08:52:17.469Z,1.55
2023-03-02T08:53:19.996Z,1.56
2023-03-02T08:54:23.108Z,1.73
2023-03-02T08:55:25.832Z,1.75
2023-03-02T08:56:34.074Z,1.73
2023-03-02T08:57:36.554Z,1.80
2023-03-02T08:58:39.203Z,1.84
2023-03-02T08:59:41.589Z,1.70
2023-03-02T09:00:44.252Z,1.72
2023-03-02T09:01:46.859Z,1.71
2023-03-02T09:02:49.394Z,1.67
2023-03-02T09:03:52.519Z,1.71
2023-03-02T09:04:55.898Z,1.70
2023-03-02T09:05:59.017Z,1.85
2023-03-02T09:07:01.935Z,1.88
2023-03-02T09:08:05.244Z,1.99
2023-03-02T09:09:09.197Z,2.02
2023-03-02T09:10:11.858Z,2.04
2023-03-02T09:11:14.718Z,2.13
2023-03-02T09:12:17.241Z,2.01
2023-03-02T09:13:19.758Z,1.91
2023-03-02T09:14:22.528Z,2.08
2023-03-02T09:15:25.167Z,2.10
2023-03-02T09:16:28.076Z,1.93
2023-03-02T09:17:30.564Z,1.90
2023-03-02T09:18:33.085Z,1.88
2023-03-02T09:19:44.240Z,1.91
2023-03-02T09:20:53.611Z,1.96
2023-03-02T09:21:56.014Z,1.94
2023-03-02T09:22:58.528Z,2.07
2023-03-02T09:24:00.957Z,1.93
2023-03-02T09:25:05.740Z,1.90
2023-03-02T09:26:08.976Z,2.09
2023-03-02T09:27:11.616Z,2.07
2023-03-02T09:28:14.132Z,2.13
2023-03-02T09:29:16.676Z,2.06
2023-03-02T09:30:19.293Z,2.13
2023-03-02T09:31:21.880Z,2.18
2023-03-02T09:32:24.504Z,2.20
2023-03-02T09:33:28.803Z,2.44
2023-03-02T09:34:31.296Z,2.38
2023-03-02T09:35:33.818Z,2.44
2023-03-02T09:36:36.727Z,2.52
2023-03-02T09:37:39.276Z,2.57
2023-03-02T09:38:41.745Z,2.55
2023-03-02T09:39:44.324Z,2.60
2023-03-02T09:40:58.671Z,2.90
2023-03-02T09:42:17.866Z,2.85
2023-03-02T09:43:53.863Z,2.95
2023-03-02T09:45:17.503Z,3.17
2023-03-02T09:46:44.398Z,2.98
2023-03-02T09:48:04.906Z,3.05
2023-03-02T09:49:26.148Z,2.95
2023-03-02T09:50:33.711Z,2.90
2023-03-02T09:51:58.789Z,3.13
2023-03-02T09:53:10.332Z,3.01
2023-03-02T09:54:19.565Z,2.90
2023-03-02T09:55:27.594Z,3.02
2023-03-02T09:56:31.867Z,2.99
2023-03-02T09:57:38.650Z,3.09
2023-03-02T09:58:43.311Z,3.15
2023-03-02T09:59:53.642Z,2.99
2023-03-02T10:01:00.475Z,2.94
2023-03-02T10:02:25.320Z,3.08
2023-03-02T10:03:36.656Z,3.09
2023-03-02T10:04:44.838Z,3.16
2023-03-02T10:05:50.639Z,3.19
2023-03-02T10:06:57.884Z,2.87
2023-03-02T10:08:01.079Z,2.86
2023-03-02T10:09:03.722Z,2.96
2023-03-02T10:10:09.240Z,2.80
2023-03-02T10:11:25.801Z,2.85
2023-03-02T10:13:02.176Z,2.77
2023-03-02T10:14:15.488Z,2.91
2023-03-02T10:15:26.165Z,3.04
2023-03-02T10:16:38.090Z,3.19
2023-03-02T10:17:53.025Z,3.22
2023-03-02T10:19:16.566Z,3.30
2023-03-02T10:20:34.683Z,3.75
2023-03-02T10:21:44.050Z,3.79
2023-03-02T10:22:50.554Z,3.65
2023-03-02T10:24:05.769Z,3.78
2023-03-02T10:25:35.800Z,3.85
2023-03-02T10:26:46.727Z,3.68
2023-03-02T10:28:02.050Z,3.79
2023-03-02T10:29:34.712Z,3.90
2023-03-02T10:30:38.924Z,3.98
2023-03-02T10:31:43.347Z,3.84
2023-03-02T10:32:50.411Z,3.88
2023-03-02T10:33:53.190Z,3.71
2023-03-02T10:34:55.934Z,3.91
2023-03-02T10:36:01.244Z,3.91
2023-03-02T10:37:13.497Z,4.02
2023-03-02T10:38:19.591Z,4.12
2023-03-02T10:39:21.984Z,3.99
2023-03-02T10:40:32.069Z,3.92
2023-03-02T10:41:51.748Z,3.82
2023-03-02T10:42:56.544Z,3.50
2023-03-02T10:44:07.463Z,3.23
2023-03-02T10:45:32.177Z,3.32
2023-03-02T10:46:43.667Z,3.40
2023-03-02T10:47:46.343Z,3.34
2023-03-02T10:48:51.981Z,3.55
2023-03-02T10:49:56.662Z,3.64
2023-03-02T10:51:00.660Z,3.66
2023-03-02T10:52:21.628Z,3.87
2023-03-02T10:53:24.385Z,3.97
2023-03-02T10:54:29.072Z,4.05
2023-03-02T10:55:33.631Z,4.02
2023-03-02T10:56:36.751Z,4.05
2023-03-02T10:57:56.918Z,4.10
2023-03-02T10:59:03.393Z,3.97
2023-03-02T11:00:21.276Z,4.18
2023-03-02T11:01:23.829Z,4.03
2023-03-02T11:02:28.471Z,4.14
2023-03-02T11:03:32.074Z,4.28
2023-03-02T11:04:34.617Z,4.33
2023-03-02T11:05:39.517Z,4.06
2023-03-02T11:06:42.175Z,3.96
2023-03-02T11:08:02.557Z,4.29
2023-03-02T11:09:07.481Z,4.16
2023-03-02T11:10:22.310Z,4.40
2023-03-02T11:11:25.273Z,4.50
2023-03-02T11:12:28.959Z,4.79
2023-03-02T11:13:37.005Z,4.90
2023-03-02T11:14:39.546Z,4.37
2023-03-02T11:15:51.198Z,4.07
2023-03-02T11:16:53.799Z,4.08
2023-03-02T11:18:05.326Z,4.16
2023-03-02T11:19:31.244Z,4.34
2023-03-02T11:20:38.927Z,4.50
2023-03-02T11:21:44.218Z,4.59
2023-03-02T11:23:07.013Z,4.64
2023-03-02T11:24:28.852Z,4.83
2023-03-02T11:25:39.297Z,4.93
2023-03-02T11:27:00.897Z,4.91
2023-03-02T11:28:17.233Z,4.88
2023-03-02T11:29:38.579Z,4.88
2023-03-02T11:30:48.335Z,4.97
2023-03-02T11:32:00.154Z,5.09
2023-03-02T11:33:13.154Z,5.12
2023-03-02T11:34:43.258Z,5.21
2023-03-02T11:35:54.807Z,5.11
2023-03-02T11:37:00.177Z,4.86
2023-03-02T11:38:12.779Z,5.12
2023-03-02T11:39:20.701Z,5.14
2023-03-02T11:40:34.881Z,5.14
2023-03-02T11:41:37.380Z,5.23
2023-03-02T11:42:42.660Z,5.44
2023-03-02T11:43:45.061Z,5.29
2023-03-02T11:44:48.668Z,5.42
2023-03-02T11:46:13.859Z,5.56
2023-03-02T11:47:23.297Z,5.67
2023-03-02T11:48:43.269Z,5.54
2023-03-02T11:49:54.905Z,5.37
2023-03-02T11:51:07.154Z,5.64
2023-03-02T11:52:27.858Z,5.50
2023-03-02T11:53:46.117Z,5.60
2023-03-02T11:54:57.677Z,5.89
2023-03-02T11:56:00.194Z,5.77
2023-03-02T11:57:04.168Z,5.78
2023-03-02T11:58:07.518Z,5.77
2023-03-02T11:59:21.087Z,5.79
2023-03-02T12:00:56.952Z,5.72
2023-03-02T12:02:01.065Z,5.57
2023-03-02T12:03:21.921Z,5.65
2023-03-02T12:04:34.161Z,5.60
2023-03-02T12:05:40.034Z,5.55
2023-03-02T12:06:45.321Z,5.40
2023-03-02T12:08:00.924Z,5.58
2023-03-02T12:09:31.333Z,5.42
2023-03-02T12:10:44.496Z,5.30
2023-03-02T12:11:53.846Z,5.25
2023-03-02T12:13:17.009Z,5.31
2023-03-02T12:14:40.658Z,5.19
2023-03-02T12:15:45.938Z,5.14
2023-03-02T12:16:48.543Z,5.25
2023-03-02T12:17:52.106Z,5.20
2023-03-02T12:18:54.812Z,5.27
2023-03-02T12:20:23.848Z,5.37
2023-03-02T12:21:27.229Z,5.40
2023-03-02T12:22:31.796Z,5.56
2023-03-02T12:23:40.654Z,5.27
2023-03-02T12:24:45.096Z,5.37
2023-03-02T12:25:51.599Z,5.17
2023-03-02T12:27:14.390Z,5.25
2023-03-02T12:28:31.435Z,5.43
2023-03-02T12:29:44.258Z,5.42
2023-03-02T12:30:56.650Z,5.52
2023-03-02T12:32:10.071Z,5.55
2023-03-02T12:33:18.422Z,5.79
2023-03-02T12:34:24.177Z,5.90
2023-03-02T12:35:26.793Z,5.73
2023-03-02T12:36:40.423Z,5.85
2023-03-02T12:37:57.462Z,6.08
2023-03-02T12:39:15.107Z,6.18
2023-03-02T12:40:57.833Z,6.22
2023-03-02T12:42:21.824Z,6.17
2023-03-02T12:43:31.785Z,6.03
2023-03-02T12:45:03.370Z,6.40
2023-03-02T12:46:32.790Z,6.05
2023-03-02T12:47:38.603Z,5.94
2023-03-02T12:48:46.640Z,6.13
2023-03-02T12:49:54.954Z,6.24
2023-03-02T12:51:03.275Z,6.53
2023-03-02T12:52:34.374Z,6.45
2023-03-02T12:53:37.550Z,6.14
2023-03-02T12:54:40.555Z,6.01
2023-03-02T12:55:43.270Z,5.85
2023-03-02T12:56:47.401Z,5.89
2023-03-02T12:57:56.522Z,5.69
2023-03-02T12:58:59.161Z,5.69
2023-03-02T13:00:04.081Z,5.79
2023-03-02T13:01:06.670Z,5.73
2023-03-02T13:02:21.978Z,5.98
2023-03-02T13:03:26.444Z,5.85
2023-03-02T13:04:29.083Z,5.93
2023-03-02T13:05:35.280Z,5.79
2023-03-02T13:06:39.730Z,5.76
2023-03-02T13:07:49.564Z,6.06
2023-03-02T13:08:55.899Z,5.97
2023-03-02T13:09:59.327Z,6.10
2023-03-02T13:11:02.778Z,6.00
2023-03-02T13:12:12.006Z,5.85
2023-03-02T13:13:20.341Z,6.00
2023-03-02T13:14:27.255Z,6.25
2023-03-02T13:15:29.772Z,6.03
2023-03-02T13:16:34.409Z,5.97
2023-03-02T13:17:37.210Z,6.19
2023-03-02T13:18:40.091Z,6.38
2023-03-02T13:19:42.847Z,6.23
2023-03-02T13:20:45.498Z,6.31
2023-03-02T13:21:48.263Z,6.50
2023-03-02T13:22:50.811Z,6.69
2023-03-02T13:23:53.290Z,6.85
2023-03-02T13:25:05.574Z,6.81
2023-03-02T13:26:08.176Z,6.75
2023-03-02T13:27:18.050Z,6.88
2023-03-02T13:28:27.671Z,7.02
2023-03-02T13:29:31.981Z,6.97
2023-03-02T13:30:37.346Z,7.12
2023-03-02T13:31:39.756Z,7.01
2023-03-02T13:32:45.613Z,7.26
2023-03-02T13:33:53.057Z,7.22
2023-03-02T13:34:59.901Z,7.56
2023-03-02T13:36:02.544Z,7.53
2023-03-02T13:37:19.705Z,7.59
2023-03-02T13:38:31.231Z,7.53
2023-03-02T13:39:33.747Z,7.49
2023-03-02T13:40:44.860Z,7.61
2023-03-02T13:41:58.965Z,7.52
2023-03-02T13:43:01.593Z,7.33
2023-03-02T13:44:28.463Z,7.51
2023-03-02T13:45:32.539Z,8.15
2023-03-02T13:46:36.689Z,8.92
2023-03-02T13:47:43.840Z,9.20
2023-03-02T13:49:09.200Z,9.14
2023-03-02T13:50:39.304Z,8.57
2023-03-02T13:51:46.828Z,8.64
2023-03-02T13:52:50.442Z,8.45
2023-03-02T13:53:57.271Z,7.38
2023-03-02T13:54:59.786Z,7.57
2023-03-02T13:56:02.941Z,7.64
2023-03-02T13:57:06.998Z,7.98
2023-03-02T13:58:15.884Z,8.10
2023-03-02T13:59:21.121Z,7.88
2023-03-02T14:00:27.748Z,8.06
2023-03-02T14:01:30.224Z,8.00
2023-03-02T14:02:32.672Z,7.64
2023-03-02T14:03:35.197Z,7.34
2023-03-02T14:04:37.681Z,7.61
2023-03-02T14:05:40.233Z,7.36
2023-03-02T14:06:42.781Z,7.10
2023-03-02T14:07:46.593Z,7.24
2023-03-02T14:08:50.321Z,7.24
2023-03-02T14:09:52.836Z,7.17
2023-03-02T14:10:58.260Z,7.32
2023-03-02T14:12:00.764Z,7.46
2023-03-02T14:13:07.616Z,7.34
2023-03-02T14:14:16.242Z,7.66
2023-03-02T14:15:18.982Z,7.40
2023-03-02T14:16:21.537Z,7.29
2023-03-02T14:17:25.961Z,7.39
2023-03-02T14:18:40.626Z,7.25
2023-03-02T14:19:43.123Z,7.26
2023-03-02T14:20:45.644Z,7.28
2023-03-02T14:21:48.285Z,7.30
2023-03-02T14:22:50.937Z,7.09
2023-03-02T14:23:54.386Z,7.01
2023-03-02T14:24:56.937Z,6.97
2023-03-02T14:25:59.456Z,7.09
2023-03-02T14:27:02.232Z,6.94
2023-03-02T14:28:04.978Z,6.85
2023-03-02T14:29:26.750Z,7.08
2023-03-02T14:30:29.332Z,6.88
2023-03-02T14:31:32.336Z,6.94
2023-03-02T14:32:35.075Z,7.04
2023-03-02T14:33:38.216Z,7.03
2023-03-02T14:34:41.485Z,7.03
2023-03-02T14:35:44.518Z,6.95
2023-03-02T14:36:50.347Z,7.01